Time;durP1;ratioP1;P1;durP2;ratioP2;P2;SDS_P1;SDS_P2;PMS_P1;PMS_P2;Temp;Humidity;BMP_temperature;BMP_pressure;BME280_temperature;BME280_humidity;BME280_pressure;Samples;Min_cycle;Max_cycle;Signal;HPM_P1;HPM_P2
2024/03/26 00:00:28;;;;;;;10.85;3.25;;;2.20;99.90;;;;;;4942940;29;20031;-68
2024/03/26 00:02:53;;;;;;;15.30;3.72;;;2.20;99.90;;;;;;4948966;28;20067;-68
2024/03/26 00:05:19;;;;;;;10.20;3.08;;;2.20;99.90;;;;;;4942162;29;20062;-68
2024/03/26 00:07:44;;;;;;;8.27;3.25;;;2.10;99.90;;;;;;4946308;28;20086;-68
2024/03/26 00:10:10;;;;;;;12.73;3.25;;;2.10;99.90;;;;;;4949002;29;20110;-68
2024/03/26 00:12:35;;;;;;;9.57;3.05;;;2.00;99.90;;;;;;4946888;28;20510;-68
2024/03/26 00:15:01;;;;;;;10.95;3.55;;;2.00;99.90;;;;;;4951142;28;20032;-68
2024/03/26 00:17:27;;;;;;;11.07;3.60;;;2.00;99.90;;;;;;4945921;28;20092;-68
2024/03/26 00:19:52;;;;;;;13.68;3.42;;;2.00;99.90;;;;;;4942276;28;20040;-68
2024/03/26 00:22:18;;;;;;;11.45;3.40;;;2.00;99.90;;;;;;4948792;28;20024;-68
2024/03/26 00:24:45;;;;;;;8.85;2.95;;;2.00;99.90;;;;;;4962903;28;20060;-68
2024/03/26 00:27:11;;;;;;;12.25;3.25;;;2.00;99.90;;;;;;4947871;28;20093;-68
2024/03/26 00:29:36;;;;;;;11.05;3.28;;;2.00;99.90;;;;;;4951510;29;20107;-68
2024/03/26 00:32:02;;;;;;;10.52;3.33;;;2.10;99.90;;;;;;4951407;28;20475;-68
2024/03/26 00:34:28;;;;;;;9.30;3.03;;;2.00;99.90;;;;;;4947931;28;20443;-68
2024/03/26 00:36:53;;;;;;;9.05;3.20;;;2.10;99.90;;;;;;4966300;28;20039;-68
2024/03/26 00:39:19;;;;;;;8.65;3.08;;;2.10;99.90;;;;;;4945495;28;20802;-68
2024/03/26 00:41:44;;;;;;;9.98;3.17;;;2.20;99.90;;;;;;4942801;28;20032;-68
2024/03/26 00:44:10;;;;;;;11.98;3.15;;;2.20;99.90;;;;;;4946650;28;20490;-68
2024/03/26 00:46:36;;;;;;;9.00;3.38;;;2.20;99.90;;;;;;4945375;28;20032;-68
2024/03/26 00:49:01;;;;;;;8.95;3.13;;;2.30;99.90;;;;;;4949205;28;20128;-68
2024/03/26 00:51:27;;;;;;;9.63;3.03;;;2.40;99.90;;;;;;4958529;28;20030;-68
2024/03/26 00:53:52;;;;;;;10.23;3.38;;;2.40;99.90;;;;;;4947759;28;20051;-68
2024/03/26 00:56:18;;;;;;;10.90;2.85;;;2.50;99.90;;;;;;4940320;28;20070;-68
2024/03/26 00:58:43;;;;;;;11.88;3.10;;;2.50;99.90;;;;;;4942164;29;20031;-69
2024/03/26 01:01:10;;;;;;;10.40;2.80;;;2.50;99.90;;;;;;4936506;28;20031;-68
2024/03/26 01:03:36;;;;;;;10.50;3.25;;;2.50;99.90;;;;;;4951774;29;20055;-68
2024/03/26 01:06:01;;;;;;;11.38;3.30;;;2.60;99.90;;;;;;4942515;29;20054;-68
2024/03/26 01:08:27;;;;;;;11.93;4.03;;;2.60;99.90;;;;;;4949838;28;20505;-68
2024/03/26 01:10:53;;;;;;;9.80;3.33;;;2.70;99.90;;;;;;4944314;28;20062;-68
2024/03/26 01:13:18;;;;;;;11.38;3.17;;;2.60;99.90;;;;;;4948728;29;20035;-68
2024/03/26 01:15:44;;;;;;;9.27;3.08;;;2.60;99.90;;;;;;4948013;28;20039;-69
2024/03/26 01:18:10;;;;;;;12.43;3.28;;;2.60;99.90;;;;;;4944619;28;20031;-68
2024/03/26 01:20:36;;;;;;;9.93;3.28;;;2.70;99.90;;;;;;4942785;28;20036;-68
2024/03/26 01:23:02;;;;;;;9.95;2.78;;;2.70;99.90;;;;;;4940263;29;20035;-68
2024/03/26 01:25:28;;;;;;;8.07;2.92;;;2.70;99.90;;;;;;4966390;28;20035;-68
2024/03/26 01:27:55;;;;;;;9.10;3.05;;;2.70;99.90;;;;;;4940294;29;20043;-68
2024/03/26 01:30:21;;;;;;;8.25;2.60;;;2.70;99.90;;;;;;4940060;29;20031;-68
2024/03/26 01:32:47;;;;;;;8.95;2.67;;;2.70;99.90;;;;;;4950854;29;20142;-67
2024/03/26 01:35:13;;;;;;;11.05;3.08;;;2.70;99.90;;;;;;4945074;29;20033;-67
2024/03/26 01:37:38;;;;;;;8.95;2.88;;;2.60;99.90;;;;;;4967182;28;20057;-67
2024/03/26 01:40:06;;;;;;;9.60;3.00;;;2.60;99.90;;;;;;4951139;28;20059;-67
2024/03/26 01:42:32;;;;;;;9.77;3.40;;;2.50;99.90;;;;;;4948755;28;20458;-67
2024/03/26 01:44:58;;;;;;;10.68;2.83;;;2.50;99.90;;;;;;4945960;28;20032;-67
2024/03/26 01:47:23;;;;;;;9.20;3.08;;;2.60;99.90;;;;;;4945465;29;20078;-67
2024/03/26 01:49:49;;;;;;;7.63;2.90;;;2.60;99.90;;;;;;4945309;29;20619;-67
2024/03/26 01:52:15;;;;;;;10.68;2.90;;;2.60;99.90;;;;;;4947398;29;20036;-67
2024/03/26 01:54:43;;;;;;;9.00;2.85;;;2.60;99.90;;;;;;4951055;28;20147;-67
2024/03/26 01:57:10;;;;;;;9.20;2.78;;;2.60;99.90;;;;;;4946257;28;20047;-67
2024/03/26 01:59:38;;;;;;;14.10;2.83;;;2.50;99.90;;;;;;4943348;29;20498;-67
2024/03/26 02:02:04;;;;;;;9.75;2.90;;;2.50;99.90;;;;;;4953918;29;20429;-67
2024/03/26 02:04:29;;;;;;;8.57;2.88;;;2.50;99.90;;;;;;4942989;28;20040;-68
2024/03/26 02:06:55;;;;;;;11.82;3.00;;;2.50;99.90;;;;;;4945661;29;20028;-67
2024/03/26 02:09:21;;;;;;;12.23;2.90;;;2.50;99.90;;;;;;4952246;28;20533;-67
2024/03/26 02:11:46;;;;;;;8.27;2.67;;;2.60;99.90;;;;;;4951313;29;20119;-67
2024/03/26 02:14:12;;;;;;;8.35;3.03;;;2.40;99.90;;;;;;4952541;28;20128;-67
2024/03/26 02:16:38;;;;;;;10.13;3.03;;;2.50;99.90;;;;;;4947567;29;20032;-67
2024/03/26 02:19:04;;;;;;;10.45;3.13;;;2.50;99.90;;;;;;4943204;29;20027;-68
2024/03/26 02:21:30;;;;;;;9.98;3.13;;;2.50;99.90;;;;;;4944776;28;20038;-67
2024/03/26 02:23:56;;;;;;;9.00;3.10;;;2.40;99.90;;;;;;4965526;28;20033;-68
2024/03/26 02:26:21;;;;;;;10.13;3.20;;;2.30;99.90;;;;;;4946903;28;20032;-67
2024/03/26 02:28:47;;;;;;;8.20;3.30;;;2.30;99.90;;;;;;4940350;28;20024;-68
2024/03/26 02:31:12;;;;;;;8.85;2.75;;;2.20;99.90;;;;;;4946683;29;20023;-67
2024/03/26 02:33:38;;;;;;;10.57;3.25;;;2.20;99.90;;;;;;4943269;29;20542;-67
2024/03/26 02:36:04;;;;;;;10.57;3.38;;;2.30;99.90;;;;;;4981764;28;20033;-67
2024/03/26 02:38:30;;;;;;;12.85;3.30;;;2.40;99.90;;;;;;4948181;28;20058;-67
2024/03/26 02:40:55;;;;;;;12.00;3.25;;;2.40;99.90;;;;;;4962138;28;20039;-68
2024/03/26 02:43:21;;;;;;;15.65;3.53;;;2.50;99.90;;;;;;4978854;28;20586;-68
2024/03/26 02:45:47;;;;;;;13.18;4.05;;;2.50;99.90;;;;;;4969398;28;20102;-68
2024/03/26 02:48:13;;;;;;;12.18;3.78;;;2.50;99.90;;;;;;4962810;28;20050;-68
2024/03/26 02:50:38;;;;;;;11.15;3.72;;;2.50;99.90;;;;;;4974613;28;20020;-68
2024/03/26 02:53:04;;;;;;;9.02;3.15;;;2.60;99.90;;;;;;4944610;28;20521;-69
2024/03/26 02:55:29;;;;;;;11.20;3.55;;;2.60;99.90;;;;;;4946243;28;20074;-68
2024/03/26 02:57:55;;;;;;;10.55;2.95;;;2.60;99.90;;;;;;4941867;28;20497;-68
2024/03/26 03:00:20;;;;;;;10.70;3.60;;;2.60;99.90;;;;;;4945399;29;20039;-68
2024/03/26 03:02:46;;;;;;;9.00;3.08;;;2.60;99.90;;;;;;4951458;28;20027;-68
2024/03/26 03:05:12;;;;;;;11.45;2.92;;;2.70;99.90;;;;;;4943965;28;20027;-68
2024/03/26 03:07:37;;;;;;;9.30;3.10;;;2.60;99.90;;;;;;4943571;28;20035;-68
2024/03/26 03:10:03;;;;;;;10.20;3.15;;;2.70;99.90;;;;;;4939336;28;20042;-68
2024/03/26 03:12:29;;;;;;;13.23;3.60;;;2.70;99.90;;;;;;4951508;28;20046;-68
2024/03/26 03:14:54;;;;;;;13.23;3.55;;;2.70;99.90;;;;;;4947159;28;20446;-68
2024/03/26 03:17:20;;;;;;;11.73;3.35;;;2.70;99.90;;;;;;4952300;28;20526;-68
2024/03/26 03:19:45;;;;;;;9.70;3.85;;;2.70;99.90;;;;;;4941264;28;20028;-69
2024/03/26 03:22:11;;;;;;;12.52;2.97;;;2.60;99.90;;;;;;4943074;28;20715;-68
2024/03/26 03:24:37;;;;;;;11.82;3.28;;;2.60;99.90;;;;;;4959881;28;20036;-68
2024/03/26 03:27:02;;;;;;;9.52;3.10;;;2.50;99.90;;;;;;4951781;28;20031;-68
2024/03/26 03:29:28;;;;;;;9.68;3.20;;;2.60;99.90;;;;;;4943164;29;20077;-68
2024/03/26 03:31:53;;;;;;;10.32;3.45;;;2.60;99.90;;;;;;4950121;29;20024;-68
2024/03/26 03:34:19;;;;;;;10.50;3.55;;;2.60;99.90;;;;;;4951466;29;20743;-68
2024/03/26 03:36:44;;;;;;;10.90;3.17;;;2.60;99.90;;;;;;4955388;28;20031;-68
2024/03/26 03:39:10;;;;;;;14.02;3.45;;;2.60;99.90;;;;;;4951453;28;20399;-68
2024/03/26 03:41:36;;;;;;;9.38;3.30;;;2.60;99.90;;;;;;4943931;28;20059;-68
2024/03/26 03:44:01;;;;;;;11.35;3.13;;;2.60;99.90;;;;;;4952771;28;20552;-68
2024/03/26 03:46:27;;;;;;;9.50;3.53;;;2.60;99.90;;;;;;4942464;29;20038;-68
2024/03/26 03:48:52;;;;;;;9.15;3.20;;;2.60;99.90;;;;;;4946557;28;20019;-68
2024/03/26 03:51:18;;;;;;;10.25;3.25;;;2.50;99.90;;;;;;4946109;28;20145;-68
2024/03/26 03:53:43;;;;;;;7.40;2.85;;;2.50;99.90;;;;;;4953437;28;20128;-68
2024/03/26 03:56:09;;;;;;;10.60;3.25;;;2.50;99.90;;;;;;4952169;28;20023;-68
2024/03/26 03:58:35;;;;;;;10.60;3.58;;;2.40;99.90;;;;;;4943108;28;20474;-68
2024/03/26 04:01:00;;;;;;;10.07;3.38;;;2.30;99.90;;;;;;4949490;28;20031;-70
2024/03/26 04:03:26;;;;;;;7.78;2.70;;;2.30;99.90;;;;;;4938068;29;20043;-68
2024/03/26 04:05:51;;;;;;;10.20;3.17;;;2.30;99.90;;;;;;4945697;28;20027;-68
2024/03/26 04:08:17;;;;;;;7.28;3.00;;;2.30;99.90;;;;;;4943494;28;20027;-68
2024/03/26 04:10:46;;;;;;;10.52;3.17;;;2.30;99.90;;;;;;4947110;28;20597;-68
2024/03/26 04:13:12;;;;;;;9.15;2.90;;;2.30;99.90;;;;;;4950674;29;20028;-68
2024/03/26 04:15:41;;;;;;;13.23;3.25;;;2.30;99.90;;;;;;4952829;29;20039;-68
2024/03/26 04:18:07;;;;;;;7.40;2.85;;;2.30;99.90;;;;;;4950819;28;20038;-68
2024/03/26 04:20:33;;;;;;;10.20;2.85;;;2.30;99.90;;;;;;4952725;28;20049;-68
2024/03/26 04:22:59;;;;;;;6.95;2.92;;;2.30;99.90;;;;;;4945261;28;20561;-68
2024/03/26 04:25:24;;;;;;;9.50;2.83;;;2.40;99.90;;;;;;4955407;28;20020;-68
2024/03/26 04:27:50;;;;;;;8.35;3.20;;;2.50;99.90;;;;;;4946806;28;20049;-68
2024/03/26 04:30:15;;;;;;;7.88;3.47;;;2.50;99.90;;;;;;4943158;28;20031;-68
2024/03/26 04:32:41;;;;;;;9.02;2.70;;;2.50;99.90;;;;;;4942459;28;20486;-68
2024/03/26 04:35:07;;;;;;;10.20;3.20;;;2.50;99.90;;;;;;4943005;29;20031;-68
2024/03/26 04:37:33;;;;;;;8.65;2.97;;;2.60;99.90;;;;;;4950797;28;20031;-68
2024/03/26 04:39:58;;;;;;;10.30;3.05;;;2.60;99.90;;;;;;4945224;28;20072;-68
2024/03/26 04:42:24;;;;;;;9.05;2.83;;;2.60;99.90;;;;;;4941704;28;20471;-68
2024/03/26 04:44:50;;;;;;;7.82;2.65;;;2.70;99.90;;;;;;4956207;28;20039;-68
2024/03/26 04:47:15;;;;;;;6.53;2.85;;;2.70;99.90;;;;;;4944535;29;20042;-68
2024/03/26 04:49:41;;;;;;;7.38;3.03;;;2.70;99.90;;;;;;4949946;29;20085;-68
2024/03/26 04:52:07;;;;;;;10.32;3.05;;;2.60;99.90;;;;;;4950822;28;20023;-68
2024/03/26 04:54:33;;;;;;;11.48;3.30;;;2.60;99.90;;;;;;4949290;28;20066;-68
2024/03/26 04:56:59;;;;;;;10.80;3.00;;;2.70;99.90;;;;;;4934997;29;20040;-68
2024/03/26 04:59:24;;;;;;;8.68;3.03;;;2.70;99.90;;;;;;4943922;28;20126;-68
2024/03/26 05:01:50;;;;;;;9.65;3.40;;;2.60;99.90;;;;;;4939247;29;20031;-68
2024/03/26 05:04:16;;;;;;;11.88;3.47;;;2.70;99.90;;;;;;4942642;29;20031;-68
2024/03/26 05:06:42;;;;;;;11.07;3.72;;;2.70;99.90;;;;;;4945325;28;20080;-70
2024/03/26 05:09:09;;;;;;;10.75;3.70;;;2.80;99.90;;;;;;4940188;29;20036;-70
2024/03/26 05:11:38;;;;;;;8.07;3.13;;;2.90;99.90;;;;;;4942144;28;20486;-70
2024/03/26 05:14:04;;;;;;;9.65;3.47;;;2.90;99.90;;;;;;4949630;29;20096;-68
2024/03/26 05:16:30;;;;;;;9.38;3.70;;;3.00;99.90;;;;;;4939792;28;20437;-68
2024/03/26 05:18:56;;;;;;;12.07;3.75;;;2.90;99.90;;;;;;4940992;29;20037;-68
2024/03/26 05:21:22;;;;;;;7.60;2.90;;;2.70;99.90;;;;;;4967225;28;20035;-68
2024/03/26 05:23:48;;;;;;;12.25;3.97;;;2.60;99.90;;;;;;4958543;28;20039;-69
2024/03/26 05:26:13;;;;;;;11.98;3.58;;;2.60;99.90;;;;;;4950559;28;20031;-69
2024/03/26 05:28:39;;;;;;;10.02;3.45;;;2.60;99.90;;;;;;4945336;28;20054;-69
2024/03/26 05:31:19;;;;;;;9.10;3.70;;;2.70;99.90;;;;;;4936387;28;20082;-69
2024/03/26 05:33:48;;;;;;;10.00;3.63;;;2.80;99.90;;;;;;4938855;28;20031;-68
2024/03/26 05:36:15;;;;;;;12.60;3.87;;;2.80;99.90;;;;;;4945703;28;20060;-69
2024/03/26 05:38:41;;;;;;;9.68;3.70;;;2.70;99.90;;;;;;4951897;28;20027;-68
2024/03/26 05:41:07;;;;;;;14.40;3.85;;;2.70;99.90;;;;;;4960646;28;20059;-68
2024/03/26 05:43:33;;;;;;;9.73;3.15;;;2.70;99.90;;;;;;4940335;28;20035;-69
2024/03/26 05:45:59;;;;;;;8.80;3.80;;;2.60;99.90;;;;;;4952151;28;20011;-69
2024/03/26 05:48:25;;;;;;;13.80;3.83;;;2.70;99.90;;;;;;4957803;28;20027;-68
2024/03/26 05:50:52;;;;;;;10.18;4.10;;;2.60;99.90;;;;;;4945177;28;20482;-66
2024/03/26 05:53:21;;;;;;;14.05;3.97;;;2.60;99.90;;;;;;4941832;28;20138;-66
2024/03/26 05:55:46;;;;;;;9.23;3.40;;;2.50;99.90;;;;;;4943070;29;20497;-66
2024/03/26 05:58:13;;;;;;;8.98;3.80;;;2.50;99.90;;;;;;4946420;28;20031;-66
2024/03/26 06:00:38;;;;;;;10.55;3.70;;;2.40;99.90;;;;;;4941539;29;20038;-68
2024/03/26 06:03:04;;;;;;;10.38;3.85;;;2.40;99.90;;;;;;4944995;28;20039;-66
2024/03/26 06:05:30;;;;;;;9.73;4.30;;;2.30;99.90;;;;;;4946825;28;20051;-70
2024/03/26 06:07:56;;;;;;;12.25;4.30;;;2.30;99.90;;;;;;4946495;28;20026;-68
2024/03/26 06:10:22;;;;;;;11.48;3.83;;;2.30;99.90;;;;;;4951455;28;20023;-68
2024/03/26 06:12:48;;;;;;;11.25;4.43;;;2.40;99.90;;;;;;4942108;28;20023;-70
2024/03/26 06:15:14;;;;;;;11.00;4.00;;;2.40;99.90;;;;;;4940438;29;20027;-70
2024/03/26 06:17:39;;;;;;;9.80;3.80;;;2.50;99.90;;;;;;4941904;29;20487;-68
2024/03/26 06:20:07;;;;;;;17.70;4.30;;;2.70;99.90;;;;;;4941504;28;20039;-68
2024/03/26 06:22:33;;;;;;;9.98;3.72;;;2.80;99.90;;;;;;4948248;29;20043;-68
2024/03/26 06:24:59;;;;;;;11.45;4.18;;;2.90;99.90;;;;;;4948850;28;20032;-68
2024/03/26 06:27:26;;;;;;;14.00;4.45;;;2.90;99.90;;;;;;4946453;28;20027;-68
2024/03/26 06:29:53;;;;;;;11.38;4.30;;;3.00;99.90;;;;;;4947164;28;20024;-68
2024/03/26 06:32:18;;;;;;;12.38;4.47;;;3.00;99.90;;;;;;4954975;28;20035;-69
2024/03/26 06:34:44;;;;;;;11.05;4.38;;;3.00;99.90;;;;;;4947151;28;20042;-68
2024/03/26 06:37:10;;;;;;;10.82;4.00;;;3.00;99.90;;;;;;4977445;28;20027;-69
2024/03/26 06:39:35;;;;;;;12.98;4.47;;;3.10;99.90;;;;;;4943211;28;20077;-69
2024/03/26 06:42:01;;;;;;;12.30;5.18;;;3.20;99.90;;;;;;4948885;28;20032;-69
2024/03/26 06:44:26;;;;;;;10.55;4.38;;;3.20;99.90;;;;;;4956802;28;20035;-70
2024/03/26 06:46:54;;;;;;;12.40;4.47;;;3.40;99.90;;;;;;4950012;28;20099;-71
2024/03/26 06:49:20;;;;;;;16.45;4.55;;;3.50;99.90;;;;;;4942081;29;20028;-69
2024/03/26 06:51:46;;;;;;;11.32;4.10;;;3.60;99.90;;;;;;4945064;28;20031;-69
2024/03/26 06:54:11;;;;;;;9.60;3.85;;;3.70;99.90;;;;;;4945781;28;20047;-65
2024/03/26 06:56:37;;;;;;;9.85;4.07;;;3.80;99.90;;;;;;4952043;28;20042;-69
2024/03/26 06:59:03;;;;;;;11.85;4.10;;;3.90;99.90;;;;;;4952259;28;20032;-70
2024/03/26 07:01:28;;;;;;;12.88;4.70;;;4.10;99.90;;;;;;4951109;28;20401;-69
2024/03/26 07:03:54;;;;;;;11.25;3.72;;;4.30;99.90;;;;;;4957999;28;20118;-69
2024/03/26 07:06:19;;;;;;;10.15;3.92;;;4.30;99.90;;;;;;4943581;28;20968;-70
2024/03/26 07:08:45;;;;;;;8.55;3.60;;;4.50;99.90;;;;;;4940433;29;20028;-68
2024/03/26 07:11:11;;;;;;;10.25;3.67;;;4.60;99.90;;;;;;4942236;28;20098;-69
2024/03/26 07:13:37;;;;;;;10.95;3.60;;;4.80;99.90;;;;;;4944283;28;20035;-68
2024/03/26 07:16:04;;;;;;;8.85;3.88;;;4.90;99.90;;;;;;4947688;28;20240;-68
2024/03/26 07:18:30;;;;;;;11.82;3.90;;;5.20;99.90;;;;;;4951773;28;20042;-68
2024/03/26 07:20:57;;;;;;;10.32;4.20;;;5.40;99.90;;;;;;4941563;29;20039;-67
2024/03/26 07:23:23;;;;;;;10.32;3.42;;;5.70;99.90;;;;;;4940663;29;20042;-68
2024/03/26 07:25:49;;;;;;;7.93;3.20;;;5.90;99.90;;;;;;4941119;28;20043;-67
2024/03/26 07:28:15;;;;;;;8.65;2.92;;;6.20;99.90;;;;;;4958655;28;20046;-68
2024/03/26 07:30:41;;;;;;;9.70;2.88;;;6.40;99.90;;;;;;4940660;28;20024;-68
2024/03/26 07:33:08;;;;;;;7.68;2.63;;;6.60;99.90;;;;;;4985554;28;20038;-67
2024/03/26 07:35:34;;;;;;;8.85;3.17;;;7.00;99.90;;;;;;4953832;28;20024;-68
2024/03/26 07:38:01;;;;;;;8.23;2.72;;;7.00;99.90;;;;;;4947773;28;20034;-67
2024/03/26 07:40:26;;;;;;;8.10;2.40;;;7.20;99.90;;;;;;4936861;28;20024;-68
2024/03/26 07:42:52;;;;;;;9.30;2.90;;;7.30;99.90;;;;;;4942945;28;20461;-70
2024/03/26 07:45:18;;;;;;;7.15;2.75;;;7.50;99.90;;;;;;4948088;28;20042;-68
2024/03/26 07:47:43;;;;;;;7.18;2.38;;;7.70;99.90;;;;;;4962377;28;20023;-68
2024/03/26 07:50:09;;;;;;;11.40;2.70;;;7.90;99.90;;;;;;4966653;28;20031;-68
2024/03/26 07:52:35;;;;;;;9.43;2.55;;;8.10;99.90;;;;;;4954442;28;20027;-68
2024/03/26 07:55:01;;;;;;;7.80;2.38;;;8.30;99.90;;;;;;4939453;28;20036;-68
2024/03/26 07:57:26;;;;;;;7.75;2.33;;;8.30;99.90;;;;;;4941382;28;20147;-68
2024/03/26 07:59:52;;;;;;;7.82;2.10;;;8.50;99.90;;;;;;4940237;28;20020;-68
2024/03/26 08:02:18;;;;;;;7.00;2.10;;;8.70;99.90;;;;;;4945506;28;20023;-68
2024/03/26 08:04:45;;;;;;;6.22;2.00;;;8.80;99.90;;;;;;4944314;28;20031;-68
2024/03/26 08:07:10;;;;;;;6.25;2.38;;;8.90;99.90;;;;;;4941277;29;20024;-68
2024/03/26 08:09:36;;;;;;;7.72;2.10;;;9.00;99.90;;;;;;4944343;28;20495;-68
2024/03/26 08:12:03;;;;;;;6.53;2.15;;;9.10;99.90;;;;;;4951132;29;20126;-68
2024/03/26 08:14:29;;;;;;;8.25;2.10;;;9.30;99.90;;;;;;4941418;29;20047;-68
2024/03/26 08:16:55;;;;;;;6.45;2.15;;;9.40;99.90;;;;;;4958126;28;20047;-68
2024/03/26 08:19:20;;;;;;;7.35;2.03;;;9.60;99.90;;;;;;4943667;28;20057;-69
2024/03/26 08:21:46;;;;;;;6.93;2.15;;;9.60;99.90;;;;;;4949399;28;20032;-69
2024/03/26 08:24:12;;;;;;;8.02;1.90;;;9.80;99.90;;;;;;4948998;28;20027;-68
2024/03/26 08:26:37;;;;;;;7.05;2.03;;;9.80;99.90;;;;;;4943303;28;20047;-69
2024/03/26 08:29:03;;;;;;;7.38;2.20;;;9.90;99.90;;;;;;4939741;29;20050;-68
2024/03/26 08:31:31;;;;;;;6.28;1.90;;;10.10;98.60;;;;;;4944606;29;20057;-69
2024/03/26 08:33:57;;;;;;;5.43;1.70;;;10.10;99.40;;;;;;4946775;28;20038;-70
2024/03/26 08:36:23;;;;;;;5.93;1.95;;;10.20;97.60;;;;;;4984227;28;20029;-70
2024/03/26 08:38:51;;;;;;;7.38;2.00;;;10.20;98.30;;;;;;4939923;28;20028;-70
2024/03/26 08:41:19;;;;;;;7.07;2.40;;;10.30;97.50;;;;;;4944200;28;20026;-70
2024/03/26 08:43:45;;;;;;;6.15;1.95;;;10.40;98.10;;;;;;4943224;29;20035;-69
2024/03/26 08:46:11;;;;;;;5.85;1.90;;;10.50;98.50;;;;;;4947294;28;20701;-69
2024/03/26 08:48:37;;;;;;;5.65;1.92;;;10.60;97.00;;;;;;4940019;28;20019;-69
2024/03/26 08:51:04;;;;;;;14.23;2.08;;;11.30;95.90;;;;;;4943911;28;20051;-69
2024/03/26 08:53:30;;;;;;;5.13;1.75;;;11.30;96.10;;;;;;4944001;28;20082;-70
2024/03/26 08:55:56;;;;;;;5.85;1.83;;;11.90;94.40;;;;;;4939907;28;20511;-70
2024/03/26 08:58:22;;;;;;;6.28;1.90;;;12.60;93.50;;;;;;4948659;29;20143;-70
2024/03/26 09:00:47;;;;;;;5.53;1.73;;;13.40;91.10;;;;;;4941251;28;20572;-70
2024/03/26 09:03:13;;;;;;;5.40;1.67;;;13.90;89.60;;;;;;4941721;29;20088;-70
2024/03/26 09:05:38;;;;;;;8.68;1.77;;;13.90;85.40;;;;;;4942592;28;20036;-70
2024/03/26 09:08:04;;;;;;;6.68;1.75;;;13.40;87.10;;;;;;4946924;28;20074;-70
2024/03/26 09:10:30;;;;;;;6.03;1.90;;;12.90;89.80;;;;;;4955431;28;20121;-70
2024/03/26 09:12:55;;;;;;;5.72;1.80;;;12.50;90.30;;;;;;4940097;28;20032;-69
2024/03/26 09:15:21;;;;;;;9.15;2.10;;;12.20;93.00;;;;;;4943300;29;20568;-70
2024/03/26 09:17:47;;;;;;;6.22;1.90;;;12.20;92.20;;;;;;4949679;28;20027;-70
2024/03/26 09:20:12;;;;;;;8.57;1.90;;;12.20;92.50;;;;;;4942809;28;20111;-70
2024/03/26 09:22:38;;;;;;;6.88;1.60;;;12.10;92.10;;;;;;4936406;29;20035;-70
2024/03/26 09:25:04;;;;;;;7.30;1.77;;;11.80;92.90;;;;;;4949187;28;20459;-70
2024/03/26 09:27:29;;;;;;;7.35;1.67;;;11.70;92.60;;;;;;4943551;28;20027;-64
2024/03/26 09:29:56;;;;;;;9.82;1.90;;;11.70;93.30;;;;;;4946544;28;20023;-69
2024/03/26 09:32:22;;;;;;;7.13;1.80;;;11.70;93.60;;;;;;4936439;28;20443;-68
2024/03/26 09:34:48;;;;;;;5.40;1.92;;;11.80;93.10;;;;;;4943980;28;20047;-68
2024/03/26 09:37:13;;;;;;;4.65;1.30;;;11.80;93.70;;;;;;4954606;28;20601;-68
2024/03/26 09:39:39;;;;;;;6.18;1.90;;;11.90;92.90;;;;;;4942643;28;20028;-68
2024/03/26 09:42:06;;;;;;;7.05;1.83;;;12.00;93.90;;;;;;4937943;28;20434;-66
2024/03/26 09:44:32;;;;;;;8.90;1.95;;;12.10;93.40;;;;;;4949800;29;20059;-67
2024/03/26 09:47:00;;;;;;;6.80;1.92;;;12.20;94.30;;;;;;4943820;29;20031;-68
2024/03/26 09:49:26;;;;;;;8.05;1.83;;;12.30;91.90;;;;;;4940103;29;20407;-67
2024/03/26 09:51:54;;;;;;;7.97;1.92;;;12.20;93.10;;;;;;4948328;28;20455;-67
2024/03/26 09:54:20;;;;;;;7.63;1.88;;;12.20;93.00;;;;;;4936961;28;20138;-68
2024/03/26 09:56:46;;;;;;;9.27;1.70;;;12.30;93.60;;;;;;4956027;28;20032;-68
2024/03/26 09:59:12;;;;;;;7.72;1.60;;;12.50;94.00;;;;;;4941219;28;20093;-67
2024/03/26 10:01:39;;;;;;;6.18;1.60;;;12.60;93.60;;;;;;4939737;29;20028;-65
2024/03/26 10:04:05;;;;;;;6.70;1.70;;;12.70;93.10;;;;;;4942514;28;20027;-67
2024/03/26 10:06:32;;;;;;;8.13;1.95;;;12.70;93.40;;;;;;4945018;28;20134;-67
2024/03/26 10:08:58;;;;;;;9.13;2.17;;;12.70;94.00;;;;;;4947814;29;20062;-66
2024/03/26 10:11:25;;;;;;;16.70;2.30;;;12.50;96.00;;;;;;4945245;29;20408;-67
2024/03/26 10:13:52;;;;;;;5.68;1.90;;;12.40;96.70;;;;;;4943255;28;20615;-66
2024/03/26 10:16:18;;;;;;;6.90;1.92;;;12.30;95.10;;;;;;4943014;28;20047;-65
2024/03/26 10:18:44;;;;;;;6.60;1.67;;;12.30;95.30;;;;;;4960044;28;20032;-66
2024/03/26 10:21:09;;;;;;;6.43;1.83;;;12.20;94.50;;;;;;4939857;28;20035;-67
2024/03/26 10:23:35;;;;;;;6.93;1.80;;;12.10;95.20;;;;;;4948334;28;20059;-66
2024/03/26 10:26:01;;;;;;;5.97;1.77;;;12.00;96.10;;;;;;4944887;28;20720;-67
2024/03/26 10:28:26;;;;;;;6.72;1.70;;;12.00;97.50;;;;;;4947775;28;20462;-65
2024/03/26 10:30:52;;;;;;;8.23;1.88;;;12.00;98.60;;;;;;4944213;28;20027;-67
2024/03/26 10:33:23;;;;;;;5.45;1.70;;;12.00;97.80;;;;;;4949206;29;20052;-65
2024/03/26 10:35:55;;;;;;;6.15;1.98;;;12.00;96.90;;;;;;4951341;28;20113;-70
2024/03/26 10:38:23;;;;;;;6.82;2.25;;;12.00;96.70;;;;;;4947566;28;20461;-65
2024/03/26 10:41:17;;;;;;;8.25;2.00;;;12.10;96.00;;;;;;4949803;28;20104;-65
2024/03/26 10:43:43;;;;;;;6.10;1.70;;;12.30;95.80;;;;;;4943784;29;20028;-64
2024/03/26 10:46:09;;;;;;;7.50;1.77;;;12.60;95.00;;;;;;4938608;29;20112;-67
2024/03/26 10:48:36;;;;;;;6.63;1.90;;;12.70;95.80;;;;;;4938567;28;20034;-68
2024/03/26 10:51:06;;;;;;;5.30;1.70;;;12.90;93.80;;;;;;4941483;28;20036;-69
2024/03/26 10:53:32;;;;;;;5.43;1.80;;;12.90;93.80;;;;;;4949858;28;20051;-67
2024/03/26 10:55:58;;;;;;;7.15;2.22;;;13.00;93.30;;;;;;4943203;29;20075;-67
2024/03/26 10:58:25;;;;;;;7.43;1.75;;;13.10;93.50;;;;;;4944178;28;20032;-67
2024/03/26 11:00:51;;;;;;;10.38;3.00;;;13.20;91.90;;;;;;4942313;29;20032;-67
2024/03/26 11:03:19;;;;;;;6.93;1.92;;;13.30;92.80;;;;;;4944488;29;20039;-67
2024/03/26 11:05:45;;;;;;;6.60;2.05;;;13.60;92.00;;;;;;4945613;28;20019;-67
2024/03/26 11:08:18;;;;;;;6.63;1.83;;;13.90;90.90;;;;;;4942528;28;20023;-67
2024/03/26 11:11:18;;;;;;;8.32;1.70;;;14.30;90.60;;;;;;4941099;28;20028;-67
2024/03/26 11:13:44;;;;;;;6.80;1.70;;;14.50;87.50;;;;;;4933496;29;20486;-67
2024/03/26 11:16:39;;;;;;;6.18;1.80;;;14.60;86.60;;;;;;4939728;29;20023;-67
2024/03/26 11:19:25;;;;;;;6.47;1.88;;;14.70;87.00;;;;;;4941844;29;20028;-67
2024/03/26 11:21:55;;;;;;;12.82;1.70;;;14.90;83.20;;;;;;4939676;29;20027;-67
2024/03/26 11:24:29;;;;;;;5.72;1.83;;;15.10;86.20;;;;;;4945098;28;20097;-67
2024/03/26 11:26:57;;;;;;;5.22;1.73;;;15.10;83.70;;;;;;4946664;29;20102;-67
2024/03/26 11:29:24;;;;;;;5.57;1.70;;;15.00;84.10;;;;;;4951041;29;20023;-67
2024/03/26 11:31:51;;;;;;;6.50;1.85;;;14.80;83.00;;;;;;4939944;29;20046;-67
2024/03/26 11:34:20;;;;;;;8.02;2.58;;;14.50;83.90;;;;;;4939799;29;20059;-67
2024/03/26 11:36:46;;;;;;;6.25;1.73;;;14.30;86.10;;;;;;4969920;28;20028;-67
2024/03/26 11:39:15;;;;;;;5.82;1.80;;;14.20;86.80;;;;;;4950710;28;20059;-67
2024/03/26 11:41:41;;;;;;;7.45;1.60;;;14.30;89.00;;;;;;4938569;28;20016;-67
2024/03/26 11:44:07;;;;;;;4.82;1.67;;;14.30;87.40;;;;;;4948683;28;20367;-67
2024/03/26 11:46:33;;;;;;;5.38;1.65;;;14.20;88.90;;;;;;4948760;28;20019;-67
2024/03/26 11:49:00;;;;;;;5.68;1.60;;;14.10;88.40;;;;;;4944470;28;20027;-67
2024/03/26 11:51:27;;;;;;;5.68;1.90;;;14.00;91.00;;;;;;4954587;28;20446;-67
2024/03/26 11:53:54;;;;;;;5.43;1.40;;;14.10;90.40;;;;;;4943761;28;20138;-66
2024/03/26 11:56:19;;;;;;;5.38;1.95;;;13.90;91.70;;;;;;4946137;28;20039;-66
2024/03/26 11:58:51;;;;;;;9.73;1.75;;;13.60;91.90;;;;;;4943669;28;20034;-67
2024/03/26 12:01:21;;;;;;;9.38;1.60;;;13.50;93.30;;;;;;4939448;29;20436;-66
2024/03/26 12:04:03;;;;;;;4.47;1.45;;;13.70;96.30;;;;;;4938572;29;20063;-66
2024/03/26 12:06:31;;;;;;;6.78;2.05;;;13.60;95.80;;;;;;4942568;29;20058;-66
2024/03/26 12:08:58;;;;;;;5.40;1.75;;;13.80;95.30;;;;;;4943111;28;20027;-66
2024/03/26 12:11:25;;;;;;;6.55;1.50;;;13.80;95.30;;;;;;4942792;28;20038;-65
2024/03/26 12:13:51;;;;;;;9.80;1.83;;;13.90;95.90;;;;;;4947673;29;20356;-65
2024/03/26 12:16:28;;;;;;;5.90;1.60;;;14.00;95.60;;;;;;4943000;28;20038;-64
2024/03/26 12:18:55;;;;;;;6.03;1.70;;;14.20;95.00;;;;;;4942609;29;20078;-65
2024/03/26 12:21:21;;;;;;;5.22;1.85;;;14.50;94.30;;;;;;4939092;28;20054;-63
2024/03/26 12:23:51;;;;;;;13.30;2.08;;;14.70;94.60;;;;;;4961715;28;20036;-67
2024/03/26 12:26:18;;;;;;;6.07;1.60;;;14.60;94.40;;;;;;4969315;28;20027;-66
2024/03/26 12:28:44;;;;;;;5.93;1.60;;;14.80;93.70;;;;;;4939519;29;20031;-67
2024/03/26 12:31:10;;;;;;;5.32;1.30;;;14.90;94.50;;;;;;4943324;28;20541;-65
2024/03/26 12:33:36;;;;;;;4.95;1.60;;;15.10;93.80;;;;;;4940179;28;20107;-65
2024/03/26 12:36:05;;;;;;;7.05;1.55;;;15.20;92.90;;;;;;4963793;28;20029;-64
2024/03/26 12:38:33;;;;;;;6.47;1.58;;;15.20;93.70;;;;;;4938549;28;20085;-67
2024/03/26 12:40:59;;;;;;;4.63;1.50;;;15.40;93.40;;;;;;4948034;28;20070;-66
2024/03/26 12:43:25;;;;;;;9.15;1.67;;;14.80;93.80;;;;;;4947850;28;20032;-63
2024/03/26 12:45:50;;;;;;;5.57;1.60;;;15.70;93.00;;;;;;4947831;28;20019;-68